Time,TemperatureF,DewpointF,PressureIn,WindDirection,WindDirectionDegrees,WindSpeedMPH,WindSpeedGustMPH,Humidity,HourlyPrecipIn,Conditions,Clouds,dailyrainin,SolarRadiationWatts/m^2,SoftwareType,DateUTC
2013-04-04 00:22:00,47.0,43.0,-100.00,SSE,154,3.0,4.0,85,0.00,,,0.01,1.000000,,2013-04-04 07:22:00,
2013-04-04 00:32:00,47.0,43.0,-100.00,SSE,154,3.0,4.0,85,0.00,,,0.01,1.000000,,2013-04-04 07:32:00,
2013-04-04 00:42:00,47.0,43.0,-100.00,SSE,154,3.0,4.0,85,0.00,,,0.01,1.000000,,2013-04-04 07:42:00,
2013-04-04 00:51:00,47.0,43.0,-100.00,SSE,154,3.0,4.0,85,0.00,,,0.01,1.000000,,2013-04-04 07:51:00,
2013-04-04 01:22:00,47.0,42.0,-100.00,NE,52,2.0,3.0,83,0.00,,,0.01,1.000000,,2013-04-04 08:22:00,
2013-04-04 01:32:00,47.0,42.0,-100.00,NE,52,2.0,3.0,83,0.00,,,0.01,1.000000,,2013-04-04 08:32:00,
2013-04-04 01:42:00,47.0,42.0,-100.00,NE,52,2.0,3.0,83,0.00,,,0.01,1.000000,,2013-04-04 08:42:00,
2013-04-04 01:52:00,47.0,42.0,-100.00,NE,52,2.0,3.0,83,0.00,,,0.01,1.000000,,2013-04-04 08:52:00,
2013-04-04 02:22:00,46.0,42.0,-100.00,ENE,64,3.0,4.0,85,0.00,,,0.01,1.000000,,2013-04-04 09:22:00,
2013-04-04 02:33:00,46.0,42.0,-100.00,ENE,64,3.0,4.0,85,0.00,,,0.01,1.000000,,2013-04-04 09:33:00,
2013-04-04 02:42:00,46.0,42.0,-100.00,ENE,64,3.0,4.0,85,0.00,,,0.01,1.000000,,2013-04-04 09:42:00,
2013-04-04 02:52:00,46.0,42.0,-100.00,ENE,64,3.0,4.0,85,0.00,,,0.01,1.000000,,2013-04-04 09:52:00,
2013-04-04 03:23:00,45.0,40.0,-100.00,ENE,69,0.0,5.0,84,0.00,,,0.01,1.000000,,2013-04-04 10:23:00,
2013-04-04 03:33:00,45.0,40.0,-100.00,ENE,69,0.0,5.0,84,0.00,,,0.01,1.000000,,2013-04-04 10:33:00,
2013-04-04 03:42:00,45.0,40.0,-100.00,ENE,69,0.0,5.0,84,0.00,,,0.01,1.000000,,2013-04-04 10:42:00,
2013-04-04 03:53:00,45.0,40.0,-100.00,ENE,69,0.0,5.0,84,0.00,,,0.01,1.000000,,2013-04-04 10:53:00,
2013-04-04 05:22:00,49.0,37.0,-100.00,SSE,162,4.0,11.0,62,-99.99,,,0.01,1.000000,,2013-04-04 12:22:00,
2013-04-04 05:32:00,49.0,37.0,-100.00,SSE,162,4.0,11.0,62,-99.99,,,0.01,1.000000,,2013-04-04 12:32:00,
2013-04-04 05:42:00,49.0,37.0,-100.00,SSE,162,4.0,11.0,62,-99.99,,,0.01,1.000000,,2013-04-04 12:42:00,
2013-04-04 05:52:00,49.0,37.0,-100.00,SSE,162,4.0,11.0,62,-99.99,,,0.01,1.000000,,2013-04-04 12:52:00,
2013-04-04 06:22:00,49.0,37.0,-100.00,SSE,161,6.0,12.0,62,0.00,,,0.01,1.000000,,2013-04-04 13:22:00,
2013-04-04 06:32:00,49.0,37.0,-100.00,SSE,161,6.0,12.0,62,0.00,,,0.01,1.000000,,2013-04-04 13:32:00,
2013-04-04 06:42:00,49.0,37.0,-100.00,SSE,161,6.0,12.0,62,0.00,,,0.01,1.000000,,2013-04-04 13:42:00,
2013-04-04 06:52:00,49.0,37.0,-100.00,SSE,161,6.0,12.0,62,0.00,,,0.01,1.000000,,2013-04-04 13:52:00,
2013-04-04 07:22:00,48.0,36.0,-100.00,SSE,164,7.0,16.0,64,0.00,,,0.01,1.000000,,2013-04-04 14:22:00,
2013-04-04 07:32:00,48.0,36.0,-100.00,SSE,164,7.0,16.0,64,0.00,,,0.01,1.000000,,2013-04-04 14:32:00,
2013-04-04 07:42:00,48.0,36.0,-100.00,SSE,164,7.0,16.0,64,0.00,,,0.01,1.000000,,2013-04-04 14:42:00,
2013-04-04 07:52:00,48.0,36.0,-100.00,SSE,164,7.0,16.0,64,0.00,,,0.01,1.000000,,2013-04-04 14:52:00,
2013-04-04 08:22:00,49.0,38.0,-100.00,South,178,9.0,20.0,65,0.00,,,0.01,25.000000,,2013-04-04 15:22:00,
2013-04-04 08:33:00,49.0,38.0,-100.00,South,178,9.0,20.0,65,0.00,,,0.01,25.000000,,2013-04-04 15:33:00,
2013-04-04 08:43:00,49.0,38.0,-100.00,South,178,9.0,20.0,65,0.00,,,0.01,25.000000,,2013-04-04 15:43:00,
2013-04-04 08:53:00,49.0,38.0,-100.00,South,178,9.0,20.0,65,0.00,,,0.01,25.000000,,2013-04-04 15:53:00,
2013-04-04 09:23:00,47.0,39.0,-100.00,SW,216,15.0,29.0,73,0.00,,,0.00,34.000000,,2013-04-04 16:23:00,
2013-04-04 09:32:00,47.0,39.0,-100.00,SW,216,15.0,29.0,73,0.00,,,0.00,34.000000,,2013-04-04 16:32:00,
2013-04-04 09:42:00,47.0,39.0,-100.00,SW,216,15.0,29.0,73,0.00,,,0.00,34.000000,,2013-04-04 16:42:00,
2013-04-04 09:52:00,47.0,39.0,-100.00,SW,216,15.0,29.0,73,0.00,,,0.00,34.000000,,2013-04-04 16:52:00,
2013-04-04 10:22:00,47.0,39.0,-100.00,South,185,9.0,21.0,74,0.00,,,0.00,127.000000,,2013-04-04 17:22:00,
2013-04-04 10:33:00,47.0,39.0,-100.00,South,185,9.0,21.0,74,0.00,,,0.00,127.000000,,2013-04-04 17:33:00,
2013-04-04 10:42:00,47.0,39.0,-100.00,South,185,9.0,21.0,74,0.00,,,0.00,127.000000,,2013-04-04 17:42:00,
2013-04-04 10:52:00,47.0,39.0,-100.00,South,185,9.0,21.0,74,0.00,,,0.00,127.000000,,2013-04-04 17:52:00,
2013-04-04 11:22:00,48.0,41.0,-100.00,WSW,239,5.0,18.0,78,0.00,,,0.00,177.000000,,2013-04-04 18:22:00,
2013-04-04 11:32:00,48.0,41.0,-100.00,WSW,239,5.0,18.0,78,0.00,,,0.00,177.000000,,2013-04-04 18:32:00,
2013-04-04 11:42:00,48.0,41.0,-100.00,WSW,239,5.0,18.0,78,0.00,,,0.00,177.000000,,2013-04-04 18:42:00,
2013-04-04 11:52:00,48.0,41.0,-100.00,WSW,239,5.0,18.0,78,0.00,,,0.00,177.000000,,2013-04-04 18:52:00,
2013-04-04 12:22:00,53.0,39.0,-100.00,SSE,165,10.0,20.0,59,0.00,,,0.00,511.000000,,2013-04-04 19:22:00,
2013-04-04 12:32:00,53.0,39.0,-100.00,SSE,165,10.0,20.0,59,0.00,,,0.00,511.000000,,2013-04-04 19:32:00,
2013-04-04 12:42:00,53.0,39.0,-100.00,SSE,165,10.0,20.0,59,0.00,,,0.00,511.000000,,2013-04-04 19:42:00,
2013-04-04 12:52:00,53.0,39.0,-100.00,SSE,165,10.0,20.0,59,0.00,,,0.00,511.000000,,2013-04-04 19:52:00,
2013-04-04 13:22:00,56.0,40.0,-100.00,South,182,8.0,26.0,54,0.00,,,0.00,682.000000,,2013-04-04 20:22:00,
2013-04-04 13:32:00,56.0,40.0,-100.00,South,182,8.0,26.0,54,0.00,,,0.00,682.000000,,2013-04-04 20:32:00,
2013-04-04 13:42:00,56.0,40.0,-100.00,South,182,8.0,26.0,54,0.00,,,0.00,682.000000,,2013-04-04 20:42:00,
2013-04-04 13:52:00,56.0,40.0,-100.00,South,182,8.0,26.0,54,0.00,,,0.00,682.000000,,2013-04-04 20:52:00,
2013-04-04 14:22:00,52.0,38.0,-100.00,SSW,192,12.0,24.0,59,0.00,,,0.00,407.000000,,2013-04-04 21:22:00,
2013-04-04 14:32:00,52.0,38.0,-100.00,SSW,192,12.0,24.0,59,0.00,,,0.00,407.000000,,2013-04-04 21:32:00,
2013-04-04 14:42:00,52.0,38.0,-100.00,SSW,192,12.0,24.0,59,0.00,,,0.00,407.000000,,2013-04-04 21:42:00,
2013-04-04 14:52:00,52.0,38.0,-100.00,SSW,192,12.0,24.0,59,0.00,,,0.00,407.000000,,2013-04-04 21:52:00,
2013-04-04 15:22:00,51.0,38.0,-100.00,WSW,237,16.0,25.0,61,0.01,,,0.01,226.000000,,2013-04-04 22:22:00,
2013-04-04 15:33:00,51.0,38.0,-100.00,WSW,237,16.0,25.0,61,0.01,,,0.01,226.000000,,2013-04-04 22:33:00,
2013-04-04 15:42:00,51.0,38.0,-100.00,WSW,237,16.0,25.0,61,0.01,,,0.01,226.000000,,2013-04-04 22:42:00,
2013-04-04 15:52:00,51.0,38.0,-100.00,WSW,237,16.0,25.0,61,0.01,,,0.01,226.000000,,2013-04-04 22:52:00,
2013-04-04 16:22:00,52.0,38.0,-100.00,SSW,208,10.0,27.0,58,0.00,,,0.01,317.000000,,2013-04-04 23:22:00,
2013-04-04 16:32:00,52.0,38.0,-100.00,SSW,208,10.0,27.0,58,0.00,,,0.01,317.000000,,2013-04-04 23:32:00,
2013-04-04 16:42:00,52.0,38.0,-100.00,SSW,208,10.0,27.0,58,0.00,,,0.01,317.000000,,2013-04-04 23:42:00,
2013-04-04 16:52:00,52.0,38.0,-100.00,SSW,208,10.0,27.0,58,0.00,,,0.01,317.000000,,2013-04-04 23:52:00,
2013-04-04 17:22:00,53.0,39.0,-100.00,SSW,197,8.0,15.0,59,0.00,,,-99.99,351.000000,,2013-04-05 00:22:00,
2013-04-04 17:32:00,53.0,39.0,-100.00,SSW,197,8.0,15.0,59,0.00,,,-99.99,351.000000,,2013-04-05 00:32:00,
2013-04-04 17:42:00,53.0,39.0,-100.00,SSW,197,8.0,15.0,59,0.00,,,-99.99,351.000000,,2013-04-05 00:42:00,
2013-04-04 17:52:00,53.0,39.0,-100.00,SSW,197,8.0,15.0,59,0.00,,,-99.99,351.000000,,2013-04-05 00:52:00,
2013-04-04 18:22:00,51.0,37.0,-100.00,WSW,255,16.0,26.0,58,0.00,,,0.01,305.000000,,2013-04-05 01:22:00,
2013-04-04 18:32:00,51.0,37.0,-100.00,WSW,255,16.0,26.0,58,0.00,,,0.01,305.000000,,2013-04-05 01:32:00,
2013-04-04 18:42:00,51.0,37.0,-100.00,WSW,255,16.0,26.0,58,0.00,,,0.01,305.000000,,2013-04-05 01:42:00,
2013-04-04 18:52:00,51.0,37.0,-100.00,WSW,255,16.0,26.0,58,0.00,,,0.01,305.000000,,2013-04-05 01:52:00,
2013-04-04 19:22:00,49.0,38.0,-100.00,SW,224,10.0,24.0,65,0.00,,,0.01,181.000000,,2013-04-05 02:22:00,
2013-04-04 19:32:00,49.0,38.0,-100.00,SW,224,10.0,24.0,65,0.00,,,0.01,181.000000,,2013-04-05 02:32:00,
2013-04-04 19:42:00,49.0,38.0,-100.00,SW,224,10.0,24.0,65,0.00,,,0.01,181.000000,,2013-04-05 02:42:00,
2013-04-04 19:52:00,49.0,38.0,-100.00,SW,224,10.0,24.0,65,0.00,,,0.01,181.000000,,2013-04-05 02:52:00,
2013-04-04 20:22:00,43.0,39.0,-100.00,SW,220,5.0,20.0,85,0.00,,,0.01,40.000000,,2013-04-05 03:22:00,
2013-04-04 20:32:00,43.0,39.0,-100.00,SW,220,5.0,20.0,85,0.00,,,0.01,40.000000,,2013-04-05 03:32:00,
2013-04-04 20:43:00,43.0,39.0,-100.00,SW,220,5.0,20.0,85,0.00,,,0.01,40.000000,,2013-04-05 03:43:00,
2013-04-04 20:53:00,43.0,39.0,-100.00,SW,220,5.0,20.0,85,0.00,,,0.01,40.000000,,2013-04-05 03:53:00,
2013-04-04 21:22:00,43.0,38.0,-100.00,SSE,154,3.0,15.0,81,0.00,,,0.01,1.000000,,2013-04-05 04:22:00,
2013-04-04 21:32:00,43.0,38.0,-100.00,SSE,154,3.0,15.0,81,0.00,,,0.01,1.000000,,2013-04-05 04:32:00,
2013-04-04 21:42:00,43.0,38.0,-100.00,SSE,154,3.0,15.0,81,0.00,,,0.01,1.000000,,2013-04-05 04:42:00,
2013-04-04 21:52:00,43.0,38.0,-100.00,SSE,154,3.0,15.0,81,0.00,,,0.01,1.000000,,2013-04-05 04:52:00,
2013-04-04 22:22:00,44.0,36.0,-100.00,WSW,251,10.0,16.0,72,0.00,,,0.01,1.000000,,2013-04-05 05:22:00,
2013-04-04 22:32:00,44.0,36.0,-100.00,WSW,251,10.0,16.0,72,0.00,,,0.01,1.000000,,2013-04-05 05:32:00,
2013-04-04 22:42:00,44.0,36.0,-100.00,WSW,251,10.0,16.0,72,0.00,,,0.01,1.000000,,2013-04-05 05:42:00,
2013-04-04 22:52:00,44.0,36.0,-100.00,WSW,251,10.0,16.0,72,0.00,,,0.01,1.000000,,2013-04-05 05:52:00,
2013-04-04 23:22:00,44.0,34.0,-100.00,WSW,241,15.0,21.0,67,0.00,,,0.01,1.000000,,2013-04-05 06:22:00,
2013-04-04 23:32:00,44.0,34.0,-100.00,WSW,241,15.0,21.0,67,0.00,,,0.01,1.000000,,2013-04-05 06:32:00,
2013-04-04 23:42:00,44.0,34.0,-100.00,WSW,241,15.0,21.0,67,0.00,,,0.01,1.000000,,2013-04-05 06:42:00,
2013-04-04 23:52:00,44.0,34.0,-100.00,WSW,241,15.0,21.0,67,0.00,,,0.01,1.000000,,2013-04-05 06:52:00,